createdAt,value
2023-03-17T00:00:27.869Z,2.38
2023-03-17T00:02:59.568Z,2.75
2023-03-17T00:05:32.745Z,2.80
2023-03-17T00:08:02.044Z,1.90
2023-03-17T00:10:29.918Z,2.20
2023-03-17T00:12:57.634Z,2.30
2023-03-17T00:15:26.988Z,1.92
2023-03-17T00:17:55.604Z,1.97
2023-03-17T00:20:28.412Z,1.45
2023-03-17T00:23:00.124Z,1.33
2023-03-17T00:25:29.372Z,1.60
2023-03-17T00:27:58.201Z,1.55
2023-03-17T00:30:27.112Z,1.40
2023-03-17T00:32:56.859Z,1.30
2023-03-17T00:35:25.446Z,1.00
2023-03-17T00:37:53.831Z,1.60
2023-03-17T00:40:24.412Z,1.20
2023-03-17T00:42:53.088Z,1.33
2023-03-17T00:45:22.260Z,1.60
2023-03-17T00:47:51.495Z,1.60
2023-03-17T00:50:22.073Z,1.38
2023-03-17T00:52:51.794Z,1.70
2023-03-17T00:55:20.068Z,1.67
2023-03-17T00:57:51.643Z,1.52
2023-03-17T01:00:21.282Z,1.60
2023-03-17T01:02:48.996Z,1.40
2023-03-17T01:05:17.210Z,1.55
2023-03-17T01:07:52.998Z,1.57
2023-03-17T01:10:22.470Z,1.52
2023-03-17T01:12:51.589Z,1.20
2023-03-17T01:15:19.769Z,1.13
2023-03-17T01:17:47.380Z,1.33
2023-03-17T01:20:17.642Z,1.20
2023-03-17T01:22:45.433Z,1.27
2023-03-17T01:25:13.312Z,1.35
2023-03-17T01:27:41.741Z,1.30
2023-03-17T01:30:21.853Z,1.30
2023-03-17T01:32:49.933Z,1.03
2023-03-17T01:35:18.072Z,1.05
2023-03-17T01:37:46.192Z,1.10
2023-03-17T01:40:15.650Z,1.30
2023-03-17T01:42:45.105Z,1.05
2023-03-17T01:45:27.965Z,1.10
2023-03-17T01:47:58.164Z,1.30
2023-03-17T01:50:26.152Z,0.90
2023-03-17T01:52:53.843Z,0.90
2023-03-17T01:55:21.444Z,1.25
2023-03-17T01:57:54.707Z,1.37
2023-03-17T02:00:23.514Z,0.95
2023-03-17T02:02:51.888Z,1.25
2023-03-17T02:05:22.227Z,1.27
2023-03-17T02:07:51.371Z,0.73
2023-03-17T02:10:20.572Z,0.90
2023-03-17T02:12:49.388Z,1.42
2023-03-17T02:15:17.377Z,1.20
2023-03-17T02:17:50.139Z,1.45
2023-03-17T02:20:38.462Z,1.40
2023-03-17T02:23:08.549Z,1.20
2023-03-17T02:25:37.369Z,1.25
2023-03-17T02:28:08.409Z,0.80
2023-03-17T02:30:36.455Z,1.30
2023-03-17T02:33:04.372Z,1.17
2023-03-17T02:35:32.119Z,1.10
2023-03-17T02:37:59.981Z,1.15
2023-03-17T02:40:29.124Z,1.10
2023-03-17T02:42:56.875Z,1.70
2023-03-17T02:45:24.539Z,1.30
2023-03-17T02:47:52.518Z,1.40
2023-03-17T02:50:21.362Z,1.30
2023-03-17T02:52:48.913Z,0.88
2023-03-17T02:55:16.914Z,1.40
2023-03-17T02:57:46.145Z,1.60
2023-03-17T03:00:14.354Z,1.63
2023-03-17T03:02:42.777Z,1.40
2023-03-17T03:05:10.870Z,1.13
2023-03-17T03:07:38.556Z,1.35
2023-03-17T03:10:06.903Z,1.27
2023-03-17T03:12:35.060Z,1.37
2023-03-17T03:15:04.081Z,1.08
2023-03-17T03:17:31.661Z,1.33
2023-03-17T03:19:59.657Z,1.50
2023-03-17T03:22:27.315Z,0.98
2023-03-17T03:24:54.775Z,1.07
2023-03-17T03:27:22.394Z,1.27
2023-03-17T03:29:50.134Z,1.40
2023-03-17T03:32:19.013Z,1.30
2023-03-17T03:34:46.972Z,1.10
2023-03-17T03:37:14.840Z,1.23
2023-03-17T03:39:42.643Z,1.25
2023-03-17T03:42:10.379Z,1.20
2023-03-17T03:44:37.903Z,1.52
2023-03-17T03:47:07.614Z,0.88
2023-03-17T03:49:36.537Z,1.23
2023-03-17T03:52:04.107Z,1.40
2023-03-17T03:54:31.676Z,1.42
2023-03-17T03:56:59.257Z,1.25
2023-03-17T03:59:26.828Z,1.17
2023-03-17T04:01:54.802Z,1.30
2023-03-17T04:04:23.036Z,1.20
2023-03-17T04:06:52.063Z,1.00
2023-03-17T04:09:19.595Z,1.13
2023-03-17T04:11:47.216Z,1.13
2023-03-17T04:14:14.968Z,1.50
2023-03-17T04:16:43.600Z,1.88
2023-03-17T04:19:11.385Z,1.42
2023-03-17T04:21:39.049Z,1.30
2023-03-17T04:24:09.580Z,1.60
2023-03-17T04:26:37.208Z,1.20
2023-03-17T04:29:05.988Z,1.35
2023-03-17T04:31:33.597Z,1.27
2023-03-17T04:34:01.219Z,1.08
2023-03-17T04:36:28.938Z,1.20
2023-03-17T04:38:56.709Z,1.33
2023-03-17T04:41:25.757Z,1.25
2023-03-17T04:43:53.401Z,1.33
2023-03-17T04:46:21.037Z,1.20
2023-03-17T04:48:49.127Z,1.58
2023-03-17T04:51:17.108Z,1.13
2023-03-17T04:53:45.583Z,1.05
2023-03-17T04:56:13.081Z,1.10
2023-03-17T04:58:42.076Z,1.10
2023-03-17T05:01:10.039Z,0.80
2023-03-17T05:03:37.602Z,1.23
2023-03-17T05:06:06.100Z,1.00
2023-03-17T05:08:33.794Z,1.63
2023-03-17T05:11:01.345Z,1.45
2023-03-17T05:13:28.885Z,1.20
2023-03-17T05:16:04.286Z,1.03
2023-03-17T05:18:31.917Z,1.10
2023-03-17T05:20:59.459Z,1.52
2023-03-17T05:23:27.235Z,0.95
2023-03-17T05:25:54.893Z,0.80
2023-03-17T05:28:22.469Z,0.90
2023-03-17T05:30:51.681Z,1.00
2023-03-17T05:33:22.001Z,1.05
2023-03-17T05:35:49.690Z,1.00
2023-03-17T05:38:17.310Z,1.42
2023-03-17T05:40:44.948Z,1.40
2023-03-17T05:43:12.583Z,1.20
2023-03-17T05:45:40.317Z,1.27
2023-03-17T05:48:08.557Z,1.20
2023-03-17T05:50:37.514Z,0.90
2023-03-17T05:53:05.103Z,1.33
2023-03-17T05:55:32.788Z,1.42
2023-03-17T05:58:04.290Z,1.40
2023-03-17T06:00:32.363Z,1.33
2023-03-17T06:03:00.109Z,1.02
2023-03-17T06:08:19.465Z,0.98
2023-03-17T06:10:47.903Z,1.48
2023-03-17T06:13:16.629Z,1.52
2023-03-17T06:15:44.482Z,1.40
2023-03-17T06:18:12.003Z,1.27
2023-03-17T06:20:39.549Z,1.58
2023-03-17T06:23:08.784Z,1.80
2023-03-17T06:25:38.535Z,1.40
2023-03-17T06:28:07.149Z,1.20
2023-03-17T06:30:35.994Z,1.50
2023-03-17T06:33:04.676Z,1.33
2023-03-17T06:35:32.619Z,1.10
2023-03-17T06:38:00.984Z,1.40
2023-03-17T06:40:28.571Z,1.98
2023-03-17T06:42:57.582Z,1.63
2023-03-17T06:45:25.228Z,1.50
2023-03-17T06:47:52.770Z,1.63
2023-03-17T06:50:23.682Z,1.25
2023-03-17T06:52:51.545Z,1.63
2023-03-17T06:55:19.896Z,1.43
2023-03-17T06:57:49.763Z,2.47
2023-03-17T07:00:21.249Z,2.20
2023-03-17T07:02:49.417Z,1.85
2023-03-17T07:05:17.050Z,2.50
2023-03-17T07:07:44.711Z,2.30
2023-03-17T07:10:13.781Z,2.45
2023-03-17T07:12:41.298Z,2.65
2023-03-17T07:15:10.564Z,1.95
2023-03-17T07:17:39.943Z,2.97
2023-03-17T07:20:08.120Z,3.23
2023-03-17T07:22:35.720Z,2.58
2023-03-17T07:25:03.621Z,2.85
2023-03-17T07:27:31.163Z,2.65
2023-03-17T07:30:02.317Z,2.20
2023-03-17T07:32:29.883Z,2.90
2023-03-17T07:34:59.399Z,3.13
2023-03-17T07:37:27.170Z,3.08
2023-03-17T07:39:54.802Z,3.28
2023-03-17T07:42:22.573Z,2.75
2023-03-17T07:44:52.821Z,3.30
2023-03-17T07:47:20.479Z,2.78
2023-03-17T07:49:48.279Z,2.72
2023-03-17T07:52:17.495Z,2.40
2023-03-17T07:54:45.053Z,2.13
2023-03-17T07:57:13.268Z,2.77
2023-03-17T07:59:42.075Z,3.10
2023-03-17T08:02:12.411Z,3.35
2023-03-17T08:04:39.921Z,3.00
2023-03-17T08:07:08.398Z,3.00
2023-03-17T08:09:37.684Z,3.37
2023-03-17T08:12:05.957Z,2.63
2023-03-17T08:14:33.608Z,2.80
2023-03-17T08:17:01.220Z,2.97
2023-03-17T08:19:28.858Z,2.63
2023-03-17T08:21:56.581Z,2.70
2023-03-17T08:24:24.069Z,2.63
2023-03-17T08:26:53.125Z,2.05
2023-03-17T08:29:21.182Z,2.42
2023-03-17T08:31:54.936Z,3.10
2023-03-17T08:34:24.124Z,2.47
2023-03-17T08:36:52.528Z,2.30
2023-03-17T08:39:20.503Z,2.33
2023-03-17T08:41:48.233Z,3.00
2023-03-17T08:44:17.139Z,2.72
2023-03-17T08:46:44.716Z,2.97
2023-03-17T08:49:13.807Z,2.97
2023-03-17T08:51:41.833Z,3.13
2023-03-17T08:54:10.031Z,2.72
2023-03-17T08:56:38.112Z,2.78
2023-03-17T08:59:06.868Z,2.90
2023-03-17T09:01:36.136Z,3.72
2023-03-17T09:04:23.573Z,2.68
2023-03-17T09:07:02.885Z,2.65
2023-03-17T09:09:32.239Z,2.53
2023-03-17T09:11:59.766Z,2.53
2023-03-17T09:14:27.484Z,2.77
2023-03-17T09:16:56.957Z,2.53
2023-03-17T09:19:24.872Z,2.75
2023-03-17T09:21:52.697Z,2.53
2023-03-17T09:24:20.729Z,3.63
2023-03-17T09:26:48.304Z,2.60
2023-03-17T09:29:16.876Z,2.90
2023-03-17T09:31:44.572Z,2.20
2023-03-17T09:34:13.521Z,2.15
2023-03-17T09:36:41.397Z,2.53
2023-03-17T09:39:09.075Z,2.37
2023-03-17T09:41:46.884Z,2.10
2023-03-17T09:44:19.982Z,2.28
2023-03-17T09:46:50.717Z,2.13
2023-03-17T09:49:21.190Z,1.88
2023-03-17T09:51:49.175Z,2.27
2023-03-17T09:54:19.735Z,1.60
2023-03-17T09:56:50.360Z,2.40
2023-03-17T09:59:28.855Z,1.50
2023-03-17T10:01:57.054Z,1.60
2023-03-17T10:04:26.269Z,1.53
2023-03-17T10:07:00.263Z,1.60
2023-03-17T10:09:32.425Z,1.33
2023-03-17T10:12:03.940Z,1.67
2023-03-17T10:14:38.223Z,1.48
2023-03-17T10:17:11.629Z,1.40
2023-03-17T10:19:42.252Z,1.40
2023-03-17T10:22:16.094Z,1.50
2023-03-17T10:24:46.468Z,1.40
2023-03-17T10:27:19.691Z,1.35
2023-03-17T10:29:48.627Z,1.57
2023-03-17T10:32:17.089Z,1.15
2023-03-17T10:34:49.273Z,1.88
2023-03-17T10:37:19.150Z,1.50
2023-03-17T10:39:48.001Z,1.30
2023-03-17T10:42:22.588Z,1.90
2023-03-17T10:44:51.971Z,1.73
2023-03-17T10:47:25.009Z,1.55
2023-03-17T10:49:55.517Z,1.08
2023-03-17T10:52:24.285Z,1.13
2023-03-17T10:54:53.309Z,1.50
2023-03-17T10:57:22.120Z,1.95
2023-03-17T10:59:53.704Z,0.88
2023-03-17T11:02:25.556Z,2.33
2023-03-17T11:04:59.516Z,0.90
2023-03-17T11:07:35.556Z,0.60
2023-03-17T11:10:04.277Z,1.30
2023-03-17T11:12:36.778Z,1.10
2023-03-17T11:15:05.986Z,0.50
2023-03-17T11:17:46.445Z,1.00
2023-03-17T11:20:34.263Z,1.33
2023-03-17T11:23:04.965Z,0.70
2023-03-17T11:25:33.493Z,0.90
2023-03-17T11:28:08.379Z,0.85
2023-03-17T11:30:36.915Z,1.60
2023-03-17T11:33:07.883Z,1.53
2023-03-17T11:35:43.533Z,2.13
2023-03-17T11:38:22.114Z,1.13
2023-03-17T11:41:09.020Z,1.30
2023-03-17T11:43:43.938Z,1.70
2023-03-17T11:46:14.083Z,1.20
2023-03-17T11:48:45.839Z,1.08
2023-03-17T11:51:20.201Z,0.93
2023-03-17T11:54:06.031Z,0.68
2023-03-17T11:56:39.790Z,0.98
2023-03-17T11:59:11.742Z,0.80
2023-03-17T12:01:45.812Z,0.82
2023-03-17T12:04:18.478Z,0.70
2023-03-17T12:06:50.664Z,0.50
2023-03-17T12:09:22.189Z,0.98
2023-03-17T12:11:50.464Z,0.63
2023-03-17T12:14:25.014Z,0.70
2023-03-17T12:16:55.644Z,0.88
2023-03-17T12:19:26.192Z,0.60
2023-03-17T12:21:57.035Z,0.57
2023-03-17T12:24:28.876Z,1.00
2023-03-17T12:26:58.299Z,1.10
2023-03-17T12:29:30.460Z,0.57
2023-03-17T12:32:02.635Z,0.70
2023-03-17T12:34:33.672Z,0.90
2023-03-17T12:37:06.963Z,0.90
2023-03-17T12:39:36.214Z,0.90
2023-03-17T12:42:13.505Z,0.65
2023-03-17T12:44:48.073Z,0.65
2023-03-17T12:47:27.569Z,0.67
2023-03-17T12:50:05.396Z,0.65
2023-03-17T12:52:57.350Z,1.10
2023-03-17T12:55:27.424Z,1.10
2023-03-17T12:58:04.162Z,0.70
2023-03-17T13:00:33.442Z,0.90
2023-03-17T13:03:15.831Z,1.02
2023-03-17T13:05:47.183Z,0.50
2023-03-17T13:08:20.504Z,0.70
2023-03-17T13:10:51.177Z,0.70
2023-03-17T13:13:36.334Z,0.63
2023-03-17T13:16:05.924Z,0.40
2023-03-17T13:18:51.388Z,0.63
2023-03-17T13:21:20.596Z,0.75
2023-03-17T13:23:54.026Z,1.10
2023-03-17T13:26:42.916Z,0.68
2023-03-17T13:29:24.302Z,0.93
2023-03-17T13:31:51.866Z,0.52
2023-03-17T13:34:20.817Z,1.08
2023-03-17T13:36:59.062Z,0.87
2023-03-17T13:39:41.192Z,0.65
2023-03-17T13:42:24.757Z,0.50
2023-03-17T13:45:02.810Z,0.77
2023-03-17T13:47:34.830Z,0.50
2023-03-17T13:50:03.910Z,0.90
2023-03-17T13:52:33.497Z,0.50
2023-03-17T13:55:03.232Z,0.60
2023-03-17T13:57:35.596Z,0.40
2023-03-17T14:00:15.344Z,0.90
2023-03-17T14:02:44.503Z,0.60
2023-03-17T14:05:20.635Z,0.70
2023-03-17T14:07:51.230Z,0.70
2023-03-17T14:10:20.520Z,0.55
2023-03-17T14:12:51.400Z,0.60
2023-03-17T14:15:22.755Z,0.40
2023-03-17T14:17:53.408Z,0.60
2023-03-17T14:20:22.709Z,0.50
2023-03-17T14:22:54.712Z,0.70
2023-03-17T14:25:23.273Z,0.60
2023-03-17T14:27:52.481Z,1.00
2023-03-17T14:30:23.213Z,0.73
2023-03-17T14:32:52.042Z,0.40
2023-03-17T14:35:24.612Z,0.98
2023-03-17T14:37:54.173Z,0.70
2023-03-17T14:40:23.045Z,0.70
2023-03-17T14:42:50.975Z,0.82
2023-03-17T14:45:22.618Z,0.65
2023-03-17T14:47:50.929Z,0.50
2023-03-17T14:50:19.480Z,0.70
2023-03-17T14:52:47.312Z,0.67
2023-03-17T14:55:15.791Z,0.40
2023-03-17T14:57:43.566Z,0.60
2023-03-17T15:00:24.145Z,0.70
2023-03-17T15:02:57.190Z,1.20
2023-03-17T15:05:26.434Z,0.90
2023-03-17T15:07:54.002Z,1.00
2023-03-17T15:10:22.886Z,0.60
2023-03-17T15:12:50.621Z,0.85
2023-03-17T15:15:23.712Z,0.90
2023-03-17T15:17:52.423Z,0.77
2023-03-17T15:20:21.567Z,0.50
2023-03-17T15:22:50.384Z,0.70
2023-03-17T15:25:19.552Z,0.82
2023-03-17T15:27:48.438Z,0.73
2023-03-17T15:30:16.708Z,0.60
2023-03-17T15:32:44.314Z,0.52
2023-03-17T15:35:13.849Z,0.85
2023-03-17T15:37:42.912Z,0.90
2023-03-17T15:40:10.980Z,0.75
2023-03-17T15:42:39.599Z,0.80
2023-03-17T15:45:10.900Z,0.70
2023-03-17T15:47:41.659Z,0.65
2023-03-17T15:50:16.366Z,1.10
2023-03-17T15:52:45.752Z,0.70
2023-03-17T15:55:17.626Z,0.83
2023-03-17T15:57:53.852Z,0.88
2023-03-17T16:00:22.950Z,0.63
2023-03-17T16:02:51.932Z,0.60
2023-03-17T16:05:20.699Z,0.77
2023-03-17T16:07:50.234Z,0.93
2023-03-17T16:10:19.330Z,0.93
2023-03-17T16:12:46.904Z,0.65
2023-03-17T16:15:23.140Z,0.93
2023-03-17T16:17:52.577Z,1.15
2023-03-17T16:20:24.578Z,1.17
2023-03-17T16:22:54.365Z,1.52
2023-03-17T16:25:24.892Z,1.83
2023-03-17T16:27:53.405Z,1.58
2023-03-17T16:30:23.301Z,0.85
2023-03-17T16:32:51.076Z,0.90
2023-03-17T16:35:20.331Z,1.10
2023-03-17T16:37:48.263Z,1.50
2023-03-17T16:40:21.751Z,1.33
2023-03-17T16:42:50.283Z,1.23
2023-03-17T16:45:27.133Z,1.73
2023-03-17T16:48:00.519Z,1.40
2023-03-17T16:50:30.160Z,0.95
2023-03-17T16:52:58.078Z,1.38
2023-03-17T16:55:27.831Z,1.00
2023-03-17T16:57:58.096Z,1.30
2023-03-17T17:00:26.863Z,1.20
2023-03-17T17:02:54.795Z,1.00
2023-03-17T17:05:23.924Z,1.55
2023-03-17T17:07:51.648Z,1.35
2023-03-17T17:10:20.364Z,1.60
2023-03-17T17:12:50.333Z,1.58
2023-03-17T17:15:19.062Z,1.10
2023-03-17T17:17:47.876Z,1.10
2023-03-17T17:20:16.584Z,1.30
2023-03-17T17:22:44.224Z,1.53
2023-03-17T17:25:12.184Z,1.77
2023-03-17T17:27:41.724Z,1.38
2023-03-17T17:30:12.396Z,1.50
2023-03-17T17:32:40.296Z,1.98
2023-03-17T17:35:08.597Z,1.40
2023-03-17T17:37:36.366Z,1.70
2023-03-17T17:40:05.900Z,1.65
2023-03-17T17:42:34.212Z,2.10
2023-03-17T17:45:01.821Z,2.00
2023-03-17T17:47:32.594Z,1.40
2023-03-17T17:50:00.415Z,1.35
2023-03-17T17:52:28.148Z,0.90
2023-03-17T17:54:55.855Z,1.38
2023-03-17T17:57:25.154Z,1.00
2023-03-17T17:59:52.715Z,1.30
2023-03-17T18:02:20.432Z,0.73
2023-03-17T18:04:51.628Z,1.40
2023-03-17T18:07:19.748Z,1.05
2023-03-17T18:09:47.262Z,1.33
2023-03-17T18:12:19.991Z,1.47
2023-03-17T18:14:47.496Z,0.90
2023-03-17T18:17:21.560Z,0.88
2023-03-17T18:19:52.884Z,1.08
2023-03-17T18:22:20.524Z,0.85
2023-03-17T18:24:48.521Z,1.30
2023-03-17T18:27:18.716Z,1.40
2023-03-17T18:29:47.248Z,1.57
2023-03-17T18:32:15.143Z,1.52
2023-03-17T18:34:44.246Z,0.95
2023-03-17T18:37:13.854Z,1.40
2023-03-17T18:39:42.082Z,1.10
2023-03-17T18:42:09.995Z,1.93
2023-03-17T18:44:37.868Z,2.90
2023-03-17T18:47:05.844Z,2.83
2023-03-17T18:49:33.524Z,2.92
2023-03-17T18:52:01.611Z,2.30
2023-03-17T18:54:31.993Z,3.27
2023-03-17T18:56:59.589Z,1.60
2023-03-17T18:59:27.318Z,1.92
2023-03-17T19:01:54.946Z,2.05
2023-03-17T19:04:22.506Z,2.10
2023-03-17T19:06:50.016Z,2.53
2023-03-17T19:09:17.758Z,1.63
2023-03-17T19:11:46.891Z,1.40
2023-03-17T19:14:15.229Z,1.33
2023-03-17T19:16:42.929Z,1.75
2023-03-17T19:19:15.317Z,2.00
2023-03-17T19:21:42.870Z,1.83
2023-03-17T19:24:12.412Z,2.00
2023-03-17T19:26:40.121Z,1.70
2023-03-17T19:29:10.242Z,2.22
2023-03-17T19:31:41.696Z,1.50
2023-03-17T19:34:15.346Z,2.03
2023-03-17T19:36:43.794Z,2.08
2023-03-17T19:39:11.855Z,1.90
2023-03-17T19:41:39.647Z,2.00
2023-03-17T19:44:08.174Z,1.60
2023-03-17T19:46:38.351Z,1.70
2023-03-17T19:49:06.899Z,2.08
2023-03-17T19:51:37.590Z,2.67
2023-03-17T19:54:06.106Z,1.83
2023-03-17T19:56:33.800Z,1.60
2023-03-17T19:59:01.549Z,2.08
2023-03-17T20:01:30.281Z,2.10
2023-03-17T20:03:59.627Z,1.83
2023-03-17T20:06:30.864Z,1.70
2023-03-17T20:08:58.505Z,1.60
2023-03-17T20:11:27.160Z,1.85
2023-03-17T20:13:54.909Z,1.85
2023-03-17T20:16:22.632Z,1.63
2023-03-17T20:18:50.303Z,2.03
2023-03-17T20:21:19.242Z,1.63
2023-03-17T20:23:46.825Z,1.80
2023-03-17T20:26:14.645Z,2.80
2023-03-17T20:28:42.296Z,4.53
2023-03-17T20:31:09.962Z,1.85
2023-03-17T20:33:37.740Z,1.40
2023-03-17T20:36:05.937Z,2.25
2023-03-17T20:38:36.883Z,4.45
2023-03-17T20:41:09.535Z,1.92
2023-03-17T20:43:37.454Z,2.03
2023-03-17T20:46:08.534Z,2.57
2023-03-17T20:48:37.399Z,4.95
2023-03-17T20:51:06.100Z,3.22
2023-03-17T20:53:36.177Z,3.22
2023-03-17T20:56:04.838Z,2.35
2023-03-17T20:58:32.668Z,2.97
2023-03-17T21:01:02.985Z,2.05
2023-03-17T21:03:31.107Z,2.05
2023-03-17T21:05:59.040Z,1.50
2023-03-17T21:08:26.662Z,2.33
2023-03-17T21:10:55.731Z,1.57
2023-03-17T21:13:23.326Z,1.10
2023-03-17T21:15:50.909Z,1.48
2023-03-17T21:18:18.918Z,1.33
2023-03-17T21:23:11.558Z,0.70
2023-03-17T21:25:39.265Z,1.00
2023-03-17T21:28:08.576Z,1.08
2023-03-17T21:30:36.949Z,0.90
2023-03-17T21:35:50.613Z,1.25
2023-03-17T21:38:18.327Z,1.30
2023-03-17T21:40:45.926Z,1.38
2023-03-17T21:43:15.664Z,1.35
2023-03-17T21:45:44.263Z,1.17
2023-03-17T21:48:11.910Z,2.47
2023-03-17T21:50:39.742Z,1.90
2023-03-17T21:53:07.375Z,2.13
2023-03-17T21:55:35.633Z,2.55
2023-03-17T21:58:03.593Z,3.70
2023-03-17T22:00:39.403Z,5.28
2023-03-17T22:03:12.591Z,3.65
2023-03-17T22:05:40.188Z,4.43
2023-03-17T22:08:08.553Z,5.60
2023-03-17T22:10:36.113Z,4.13
2023-03-17T22:13:03.699Z,4.18
2023-03-17T22:15:32.646Z,5.60
2023-03-17T22:18:00.383Z,5.57
2023-03-17T22:20:30.020Z,6.88
2023-03-17T22:22:58.446Z,6.55
2023-03-17T22:25:26.161Z,5.47
2023-03-17T22:27:54.249Z,4.47
2023-03-17T22:30:22.041Z,5.30
2023-03-17T22:32:51.329Z,4.50
2023-03-17T22:35:20.661Z,4.53
2023-03-17T22:37:48.205Z,3.93
2023-03-17T22:40:15.923Z,3.53
2023-03-17T22:42:43.467Z,4.35
2023-03-17T22:45:13.090Z,3.70
2023-03-17T22:47:41.145Z,3.67
2023-03-17T22:50:10.887Z,4.17
2023-03-17T22:52:38.678Z,3.72
2023-03-17T22:55:07.933Z,3.85
2023-03-17T22:57:35.860Z,4.15
2023-03-17T23:00:05.620Z,4.32
2023-03-17T23:02:33.518Z,4.30
2023-03-17T23:05:03.192Z,5.00
2023-03-17T23:07:47.804Z,5.25
2023-03-17T23:10:19.631Z,4.20
2023-03-17T23:12:47.273Z,3.90
2023-03-17T23:15:15.230Z,4.37
2023-03-17T23:17:42.922Z,4.05
2023-03-17T23:20:11.257Z,5.20
2023-03-17T23:22:40.120Z,4.57
2023-03-17T23:25:08.534Z,3.95
2023-03-17T23:27:36.306Z,4.07
2023-03-17T23:30:04.251Z,4.35
2023-03-17T23:32:32.086Z,3.92
2023-03-17T23:34:59.979Z,3.42
2023-03-17T23:37:27.632Z,4.30
2023-03-17T23:39:56.923Z,4.33
2023-03-17T23:42:24.891Z,3.45
2023-03-17T23:44:52.632Z,3.63
2023-03-17T23:47:20.531Z,4.40
2023-03-17T23:49:48.325Z,3.60
2023-03-17T23:52:17.858Z,3.50
2023-03-17T23:54:45.493Z,4.43
2023-03-17T23:57:16.007Z,3.47
2023-03-17T23:59:44.690Z,4.18
